createdAt,value
2023-01-22T17:38:12.883Z,10.00
2023-01-22T17:43:09.348Z,10.38
2023-01-22T17:48:06.185Z,11.25
2023-01-22T17:53:02.648Z,10.73
2023-01-22T17:57:59.794Z,10.05
2023-01-22T18:02:56.240Z,10.80
2023-01-22T18:07:52.746Z,10.63
2023-01-22T18:12:49.159Z,10.80
2023-01-22T18:17:45.623Z,11.48
2023-01-22T18:22:42.002Z,11.82
2023-01-22T18:27:38.609Z,12.13
2023-01-22T18:32:35.761Z,11.25
2023-01-22T18:37:33.735Z,10.55
2023-01-22T18:42:32.973Z,12.60
2023-01-22T18:47:29.688Z,11.13
2023-01-22T18:52:27.163Z,10.20
2023-01-22T18:57:30.048Z,10.05
2023-01-22T19:02:26.477Z,10.43
2023-01-22T19:07:22.975Z,9.90
2023-01-22T19:12:20.403Z,10.65
2023-01-22T19:17:17.022Z,11.43
2023-01-22T19:22:13.450Z,10.48
2023-01-22T19:27:10.219Z,10.70
2023-01-22T19:32:11.078Z,10.57
2023-01-22T19:37:07.516Z,10.18
2023-01-22T19:42:06.654Z,10.20
2023-01-22T19:47:03.491Z,10.43
2023-01-22T19:51:59.988Z,10.65
2023-01-22T19:56:56.664Z,9.98
2023-01-22T20:01:53.173Z,9.35
2023-01-22T20:06:51.724Z,10.10
2023-01-22T20:11:53.684Z,10.20
2023-01-22T20:16:50.770Z,10.00
2023-01-22T20:21:47.220Z,9.50
2023-01-22T20:26:43.631Z,10.13
2023-01-22T20:31:40.080Z,10.82
2023-01-22T20:36:36.563Z,11.32
2023-01-22T20:41:34.254Z,10.80
2023-01-22T20:46:30.634Z,11.43
2023-01-22T20:51:28.582Z,11.63
2023-01-22T20:56:30.297Z,11.80
2023-01-22T21:01:27.865Z,12.27
2023-01-22T21:06:27.592Z,11.85
2023-01-22T21:11:25.776Z,11.95
2023-01-22T21:16:29.409Z,12.07
2023-01-22T21:21:26.510Z,11.57
2023-01-22T21:26:26.687Z,11.88
2023-01-22T21:31:24.248Z,12.77
2023-01-22T21:36:22.226Z,12.15
2023-01-22T21:41:19.510Z,13.52
2023-01-22T21:46:22.094Z,13.50
2023-01-22T21:56:14.886Z,13.20
2023-01-22T22:01:15.210Z,11.95
2023-01-22T22:06:13.234Z,13.23
2023-01-22T22:11:11.302Z,11.93
2023-01-22T22:16:08.713Z,12.00
2023-01-22T22:21:07.862Z,12.57
2023-01-22T22:26:05.612Z,13.10
2023-01-22T22:31:11.803Z,12.90
2023-01-22T22:36:08.963Z,12.35
2023-01-22T22:41:14.115Z,12.38
2023-01-22T22:46:26.690Z,12.70
2023-01-22T22:51:34.891Z,12.77
2023-01-22T22:56:31.726Z,12.60
2023-01-22T23:01:30.089Z,12.55
2023-01-22T23:06:29.757Z,12.35
2023-01-22T23:11:32.812Z,11.57
2023-01-22T23:16:32.629Z,11.85
2023-01-22T23:21:29.703Z,12.38
2023-01-22T23:26:29.807Z,11.73
2023-01-22T23:31:27.754Z,13.00
2023-01-22T23:36:26.041Z,12.27
2023-01-22T23:41:23.782Z,13.10
2023-01-22T23:46:23.217Z,13.05
2023-01-22T23:51:19.890Z,13.35
2023-01-22T23:56:16.429Z,13.65
